Time;durP1;ratioP1;P1;durP2;ratioP2;P2;SDS_P1;SDS_P2;PMS_P1;PMS_P2;Temp;Humidity;BMP_temperature;BMP_pressure;BME280_temperature;BME280_humidity;BME280_pressure;Samples;Min_cycle;Max_cycle;Signal;HPM_P1;HPM_P2
2023/03/08 00:01:34;;;;;;;14.13;9.32;;;3.20;99.90;;;;;;5019207;28;20405;-80
2023/03/08 00:04:01;;;;;;;15.05;10.27;;;3.20;99.90;;;;;;5023801;28;20211;-81
2023/03/08 00:06:31;;;;;;;14.65;10.38;;;3.10;99.90;;;;;;5024916;28;20215;-80
2023/03/08 00:09:00;;;;;;;15.90;11.80;;;3.10;99.90;;;;;;5022114;28;20214;-80
2023/03/08 00:11:28;;;;;;;17.30;10.77;;;2.90;99.90;;;;;;5021958;28;20264;-82
2023/03/08 00:13:55;;;;;;;15.35;11.45;;;2.70;99.90;;;;;;5024995;28;20242;-80
2023/03/08 00:16:23;;;;;;;14.10;9.82;;;2.80;99.90;;;;;;5022540;28;20245;-80
2023/03/08 00:18:51;;;;;;;18.58;11.82;;;2.70;99.90;;;;;;5020564;28;20492;-83
2023/03/08 00:21:21;;;;;;;14.18;10.73;;;2.80;99.90;;;;;;5010951;28;20210;-83
2023/03/08 00:23:52;;;;;;;20.30;12.45;;;2.70;99.90;;;;;;5019346;28;20207;-82
2023/03/08 00:26:20;;;;;;;21.63;11.10;;;2.50;99.90;;;;;;5028199;28;20206;-82
2023/03/08 00:28:47;;;;;;;13.40;9.18;;;2.50;99.90;;;;;;5021663;28;20388;-82
2023/03/08 00:31:14;;;;;;;10.40;7.82;;;2.40;99.90;;;;;;5023820;28;20211;-82
2023/03/08 00:33:42;;;;;;;13.65;8.20;;;2.30;99.90;;;;;;5026443;28;20209;-82
2023/03/08 00:36:14;;;;;;;13.82;8.73;;;2.20;99.90;;;;;;5026125;28;20284;-82
2023/03/08 00:38:41;;;;;;;10.48;7.70;;;2.10;99.90;;;;;;5026974;28;20217;-81
2023/03/08 00:41:09;;;;;;;14.77;8.30;;;2.20;99.90;;;;;;5020689;28;20213;-84
2023/03/08 00:43:36;;;;;;;10.20;7.78;;;2.10;99.90;;;;;;5019225;28;20291;-83
2023/03/08 00:46:06;;;;;;;9.75;6.63;;;2.10;99.90;;;;;;5017431;28;20212;-83
2023/03/08 00:48:33;;;;;;;11.00;8.52;;;2.30;99.90;;;;;;5025428;28;20218;-81
2023/03/08 00:51:00;;;;;;;11.15;7.43;;;2.20;99.90;;;;;;5020990;28;20210;-82
2023/03/08 00:53:27;;;;;;;13.18;8.93;;;2.40;99.90;;;;;;5027925;28;20244;-81
2023/03/08 00:56:00;;;;;;;13.15;8.95;;;2.40;99.90;;;;;;5017787;28;20253;-82
2023/03/08 00:58:29;;;;;;;12.43;7.82;;;2.30;99.90;;;;;;5030196;28;20213;-81
2023/03/08 01:00:57;;;;;;;11.20;7.85;;;2.40;99.90;;;;;;5028047;28;20210;-81
2023/03/08 01:03:26;;;;;;;15.07;9.32;;;2.50;99.90;;;;;;5029750;28;20413;-82
2023/03/08 01:05:55;;;;;;;12.65;8.07;;;2.60;99.90;;;;;;5022951;28;20429;-80
2023/03/08 01:08:23;;;;;;;11.55;8.38;;;2.40;99.90;;;;;;5022416;28;20217;-81
2023/03/08 01:10:56;;;;;;;12.55;9.68;;;2.30;99.90;;;;;;5032154;28;20198;-80
2023/03/08 01:13:30;;;;;;;12.02;8.23;;;2.20;99.90;;;;;;5023041;28;20218;-83
2023/03/08 01:15:57;;;;;;;10.13;8.02;;;2.00;99.90;;;;;;5026691;28;20194;-80
2023/03/08 01:18:25;;;;;;;11.18;7.97;;;2.00;99.90;;;;;;5028413;28;20244;-81
2023/03/08 01:21:03;;;;;;;10.75;7.80;;;2.00;99.90;;;;;;5018202;28;20214;-82
2023/03/08 01:23:30;;;;;;;9.27;6.18;;;1.90;99.90;;;;;;5026459;28;20220;-81
2023/03/08 01:26:07;;;;;;;10.90;6.90;;;1.80;99.90;;;;;;5024600;28;20208;-81
2023/03/08 01:28:35;;;;;;;9.55;6.65;;;1.80;99.90;;;;;;5028557;28;20387;-81
2023/03/08 01:31:24;;;;;;;8.65;6.40;;;1.90;99.90;;;;;;5019805;28;20210;-82
2023/03/08 01:33:52;;;;;;;8.98;6.15;;;1.90;99.90;;;;;;5025455;28;20214;-81
2023/03/08 01:36:21;;;;;;;9.55;6.60;;;2.00;99.90;;;;;;5027617;28;20280;-81
2023/03/08 01:38:48;;;;;;;8.85;6.85;;;2.00;99.90;;;;;;5017966;28;20211;-81
2023/03/08 01:41:21;;;;;;;8.88;5.90;;;2.10;99.90;;;;;;5028191;28;20214;-81
2023/03/08 01:43:48;;;;;;;9.00;6.63;;;2.00;99.90;;;;;;5029493;28;20221;-81
2023/03/08 01:46:26;;;;;;;7.30;6.13;;;2.00;99.90;;;;;;5026306;28;20514;-80
2023/03/08 01:48:57;;;;;;;8.77;5.85;;;2.10;99.90;;;;;;5038610;28;20239;-79
2023/03/08 01:51:36;;;;;;;9.98;6.25;;;2.10;99.90;;;;;;5047961;28;20196;-79
2023/03/08 01:54:17;;;;;;;8.48;6.00;;;2.00;99.90;;;;;;5044371;28;20286;-80
2023/03/08 01:56:47;;;;;;;13.10;6.88;;;2.00;99.90;;;;;;5047557;28;20205;-81
2023/03/08 01:59:15;;;;;;;11.40;7.13;;;2.00;99.90;;;;;;5036000;28;20567;-81
2023/03/08 02:01:42;;;;;;;9.60;6.60;;;1.90;99.90;;;;;;5021721;28;20263;-81
2023/03/08 02:04:10;;;;;;;9.80;7.50;;;1.80;99.90;;;;;;5028271;28;20202;-81
2023/03/08 02:06:37;;;;;;;8.93;7.18;;;1.70;99.90;;;;;;5025221;28;20206;-80
2023/03/08 02:09:07;;;;;;;9.02;5.97;;;1.70;99.90;;;;;;5021656;28;20232;-80
2023/03/08 02:11:36;;;;;;;8.85;6.60;;;1.70;99.90;;;;;;5036281;28;20212;-81
2023/03/08 02:14:04;;;;;;;6.80;5.15;;;1.60;99.90;;;;;;5024763;28;20208;-82
2023/03/08 02:16:31;;;;;;;7.40;5.72;;;1.60;99.90;;;;;;5031348;28;20232;-82
2023/03/08 02:19:02;;;;;;;5.95;4.97;;;1.50;99.90;;;;;;5033046;28;20209;-81
2023/03/08 02:21:30;;;;;;;8.55;4.20;;;1.50;99.90;;;;;;5031224;28;20516;-81
2023/03/08 02:24:21;;;;;;;3.85;3.45;;;1.40;99.90;;;;;;5021142;28;20251;-82
2023/03/08 02:26:51;;;;;;;7.00;4.72;;;1.40;99.90;;;;;;5016318;28;20217;-81
2023/03/08 02:29:18;;;;;;;6.78;3.67;;;1.40;99.90;;;;;;5032087;28;20201;-81
2023/03/08 02:31:45;;;;;;;7.20;4.03;;;1.40;99.90;;;;;;5021072;28;20211;-81
2023/03/08 02:34:12;;;;;;;10.43;4.30;;;1.50;99.90;;;;;;5025535;28;20209;-83
2023/03/08 02:36:39;;;;;;;8.05;3.97;;;1.50;99.90;;;;;;5028653;28;20224;-81
2023/03/08 02:39:06;;;;;;;4.53;3.15;;;1.40;99.90;;;;;;5025209;28;20206;-81
2023/03/08 02:41:33;;;;;;;8.05;3.90;;;1.50;99.90;;;;;;5020837;28;20208;-82
2023/03/08 02:44:00;;;;;;;6.90;4.32;;;1.40;99.90;;;;;;5021243;28;20224;-80
2023/03/08 02:46:27;;;;;;;10.63;4.28;;;1.50;99.90;;;;;;5015635;28;20210;-81
2023/03/08 02:48:54;;;;;;;4.53;3.78;;;1.50;99.90;;;;;;5024207;28;20252;-80
2023/03/08 02:51:21;;;;;;;6.60;4.07;;;1.50;99.90;;;;;;5028491;28;20412;-81
2023/03/08 02:53:48;;;;;;;9.90;5.10;;;1.60;99.90;;;;;;5019360;28;20436;-81
2023/03/08 02:56:15;;;;;;;6.13;5.07;;;1.60;99.90;;;;;;5034829;28;20432;-80
2023/03/08 02:58:42;;;;;;;7.57;4.35;;;1.60;99.90;;;;;;5024747;28;20386;-82
2023/03/08 03:01:13;;;;;;;7.10;4.25;;;1.70;99.90;;;;;;5032997;28;20272;-80
2023/03/08 03:03:42;;;;;;;4.55;3.35;;;1.50;99.90;;;;;;5018358;28;20301;-81
2023/03/08 03:06:17;;;;;;;3.72;3.33;;;1.40;99.90;;;;;;5027439;28;20220;-81
2023/03/08 03:08:44;;;;;;;5.35;3.38;;;1.40;99.90;;;;;;5018542;28;20397;-83
2023/03/08 03:11:13;;;;;;;3.15;2.85;;;1.60;99.90;;;;;;5024830;28;20382;-82
2023/03/08 03:13:40;;;;;;;8.98;3.35;;;1.70;99.90;;;;;;5023270;28;20259;-83
2023/03/08 03:16:09;;;;;;;6.35;4.30;;;1.60;99.90;;;;;;5020475;28;20209;-82
2023/03/08 03:18:36;;;;;;;4.50;3.53;;;1.50;99.90;;;;;;5032335;28;20239;-83
2023/03/08 03:21:06;;;;;;;10.60;3.95;;;1.50;99.90;;;;;;5019751;28;20430;-80
2023/03/08 03:23:33;;;;;;;6.18;3.67;;;1.60;99.90;;;;;;5020389;28;20220;-81
2023/03/08 03:26:09;;;;;;;4.93;3.70;;;1.50;99.90;;;;;;5033200;28;20228;-83
2023/03/08 03:28:36;;;;;;;7.65;3.90;;;1.60;99.90;;;;;;5020883;28;20237;-82
2023/03/08 03:31:15;;;;;;;6.65;4.07;;;1.80;99.90;;;;;;5026791;28;20210;-82
2023/03/08 03:33:42;;;;;;;7.45;3.50;;;1.70;99.90;;;;;;5014817;28;20197;-81
2023/03/08 03:36:12;;;;;;;5.45;3.20;;;1.80;99.90;;;;;;5032818;28;20210;-81
2023/03/08 03:38:40;;;;;;;3.88;3.05;;;2.10;99.90;;;;;;5013896;28;20234;-80
2023/03/08 03:41:12;;;;;;;4.50;3.03;;;2.20;99.90;;;;;;5026870;28;20248;-80
2023/03/08 03:43:41;;;;;;;5.75;3.92;;;2.00;99.90;;;;;;5027269;28;20205;-79
2023/03/08 03:46:11;;;;;;;7.95;3.78;;;2.00;99.90;;;;;;5033599;28;21464;-81
2023/03/08 03:48:38;;;;;;;5.95;3.70;;;2.00;99.90;;;;;;5017818;28;20223;-83
2023/03/08 03:51:09;;;;;;;6.10;3.83;;;1.90;99.90;;;;;;5026562;28;20391;-82
2023/03/08 03:53:37;;;;;;;3.60;2.67;;;2.00;99.90;;;;;;5020924;28;20209;-82
2023/03/08 03:56:18;;;;;;;5.18;3.90;;;2.10;99.90;;;;;;5022180;28;20435;-82
2023/03/08 03:58:46;;;;;;;5.70;4.85;;;2.30;99.90;;;;;;5027575;28;20218;-82
2023/03/08 04:01:16;;;;;;;3.08;2.72;;;2.20;99.90;;;;;;5020209;28;20214;-84
2023/03/08 04:03:43;;;;;;;5.05;3.72;;;2.20;99.90;;;;;;5026691;28;20206;-83
2023/03/08 04:06:19;;;;;;;12.30;4.10;;;2.10;99.90;;;;;;5025378;28;20236;-84
2023/03/08 04:08:46;;;;;;;4.55;3.75;;;2.20;99.90;;;;;;5031542;28;20225;-82
2023/03/08 04:11:16;;;;;;;12.80;4.03;;;2.20;99.90;;;;;;5027085;28;20205;-81
2023/03/08 04:13:44;;;;;;;4.22;3.25;;;2.10;99.90;;;;;;5031725;28;20211;-83
2023/03/08 04:16:26;;;;;;;3.78;2.60;;;2.10;99.90;;;;;;5027886;28;20268;-81
2023/03/08 04:18:57;;;;;;;4.50;3.20;;;2.10;99.90;;;;;;5025794;28;20525;-82
2023/03/08 04:21:25;;;;;;;3.55;3.22;;;2.20;99.90;;;;;;5021158;28;20205;-83
2023/03/08 04:23:52;;;;;;;2.92;2.53;;;2.20;99.90;;;;;;5022316;28;20217;-81
2023/03/08 04:26:20;;;;;;;4.80;3.60;;;2.10;99.90;;;;;;5023438;28;20196;-83
2023/03/08 04:28:47;;;;;;;5.30;3.67;;;2.00;99.90;;;;;;5015627;28;20415;-83
2023/03/08 04:31:20;;;;;;;7.78;5.03;;;2.30;99.90;;;;;;5038448;28;20204;-85
2023/03/08 04:33:48;;;;;;;5.80;3.85;;;2.30;99.90;;;;;;5022481;28;20247;-84
2023/03/08 04:36:16;;;;;;;6.80;3.67;;;2.20;99.90;;;;;;5012672;28;20217;-83
2023/03/08 04:38:44;;;;;;;8.90;4.22;;;2.30;99.90;;;;;;5012709;28;20565;-84
2023/03/08 04:41:12;;;;;;;5.72;4.57;;;2.30;99.90;;;;;;5022483;28;20213;-83
2023/03/08 04:43:51;;;;;;;6.78;3.65;;;2.30;99.90;;;;;;5021956;28;20723;-85
2023/03/08 04:46:20;;;;;;;4.78;3.05;;;2.30;99.90;;;;;;5029301;28;20234;-84
2023/03/08 04:48:48;;;;;;;4.05;3.42;;;2.40;99.90;;;;;;5018426;28;20212;-85
2023/03/08 04:51:15;;;;;;;5.82;4.40;;;2.50;99.90;;;;;;5021530;28;20445;-83
2023/03/08 04:53:44;;;;;;;6.20;4.47;;;2.40;99.90;;;;;;5017974;28;20267;-83
2023/03/08 04:56:13;;;;;;;13.35;5.15;;;2.30;99.90;;;;;;5025573;28;20623;-84
2023/03/08 04:58:39;;;;;;;5.25;3.58;;;2.30;99.90;;;;;;5029074;28;20225;-84
2023/03/08 05:01:09;;;;;;;6.18;4.45;;;2.20;99.90;;;;;;5025808;28;20206;-83
2023/03/08 05:03:35;;;;;;;7.88;4.90;;;2.20;99.90;;;;;;5023572;28;20417;-85
2023/03/08 05:06:03;;;;;;;5.63;5.00;;;2.20;99.90;;;;;;5020205;28;20212;-86
2023/03/08 05:08:30;;;;;;;5.90;4.28;;;2.30;99.90;;;;;;5019635;28;20410;-85
2023/03/08 05:10:59;;;;;;;8.32;5.70;;;2.40;99.90;;;;;;5028101;28;20375;-86
2023/03/08 05:13:30;;;;;;;10.57;7.35;;;2.50;99.90;;;;;;5023950;28;20201;-85
2023/03/08 05:15:57;;;;;;;13.60;6.32;;;2.40;99.90;;;;;;5018708;28;20495;-86
2023/03/08 05:18:24;;;;;;;7.60;5.15;;;2.50;99.90;;;;;;5021504;28;20557;-84
2023/03/08 05:20:55;;;;;;;9.20;6.10;;;2.60;99.90;;;;;;5020341;28;20212;-85
2023/03/08 05:23:24;;;;;;;10.73;6.60;;;2.60;99.90;;;;;;5024793;28;20204;-86
2023/03/08 05:25:56;;;;;;;9.93;7.18;;;2.60;99.90;;;;;;5021024;28;20217;-85
2023/03/08 05:28:24;;;;;;;11.80;6.07;;;2.60;99.90;;;;;;5030439;28;20210;-86
2023/03/08 05:31:08;;;;;;;13.52;7.55;;;2.60;99.90;;;;;;5028518;28;20205;-83
2023/03/08 05:33:35;;;;;;;10.75;7.22;;;2.50;99.90;;;;;;5019691;28;20244;-83
2023/03/08 05:36:04;;;;;;;14.50;7.75;;;2.60;99.90;;;;;;5024677;28;20210;-81
2023/03/08 05:38:33;;;;;;;10.18;7.63;;;2.50;99.90;;;;;;5031164;28;20229;-81
2023/03/08 05:41:06;;;;;;;10.90;7.15;;;2.60;99.90;;;;;;5022086;28;20211;-83
2023/03/08 05:43:33;;;;;;;12.82;7.57;;;2.50;99.90;;;;;;5027315;28;20321;-82
2023/03/08 05:46:02;;;;;;;13.32;7.15;;;2.40;99.90;;;;;;5025047;28;20214;-80
2023/03/08 05:48:31;;;;;;;11.23;7.88;;;2.30;99.90;;;;;;5020432;28;20564;-82
2023/03/08 05:50:58;;;;;;;13.90;8.77;;;2.40;99.90;;;;;;5020402;28;20213;-83
2023/03/08 05:53:26;;;;;;;12.50;7.40;;;2.50;99.90;;;;;;5017579;28;20206;-82
2023/03/08 05:55:54;;;;;;;11.02;7.95;;;2.40;99.90;;;;;;5026763;28;20374;-83
2023/03/08 05:58:21;;;;;;;9.00;6.78;;;2.20;99.90;;;;;;5021049;28;20558;-81
2023/03/08 06:00:48;;;;;;;13.02;7.50;;;2.40;99.90;;;;;;5013950;28;20206;-85
2023/03/08 06:03:14;;;;;;;14.32;8.38;;;2.60;99.90;;;;;;5018858;28;20256;-83
2023/03/08 06:05:41;;;;;;;8.80;6.90;;;2.80;99.90;;;;;;5017419;28;20509;-83
2023/03/08 06:08:11;;;;;;;12.63;8.32;;;3.00;99.90;;;;;;5034050;28;20210;-83
2023/03/08 06:10:38;;;;;;;13.60;7.47;;;2.80;99.90;;;;;;5028861;28;20206;-84
2023/03/08 06:13:05;;;;;;;10.88;7.07;;;2.80;99.90;;;;;;5022290;28;20234;-81
2023/03/08 06:15:32;;;;;;;13.20;8.23;;;2.90;99.90;;;;;;5019686;28;20560;-82
2023/03/08 06:17:59;;;;;;;14.55;5.70;;;3.20;99.90;;;;;;5022334;28;20262;-82
2023/03/08 06:20:26;;;;;;;12.27;7.80;;;3.30;99.90;;;;;;5022064;28;20257;-84
2023/03/08 06:22:53;;;;;;;10.68;7.10;;;3.40;99.90;;;;;;5020712;28;20470;-82
2023/03/08 06:25:19;;;;;;;19.02;10.55;;;3.40;99.90;;;;;;5012413;28;20280;-83
2023/03/08 06:27:47;;;;;;;12.57;7.30;;;3.50;99.90;;;;;;5034369;28;20238;-84
2023/03/08 06:30:14;;;;;;;12.40;8.15;;;3.50;99.90;;;;;;5043279;28;20191;-86
2023/03/08 06:32:41;;;;;;;14.52;8.65;;;3.50;99.90;;;;;;5035937;28;20203;-85
2023/03/08 06:35:09;;;;;;;13.25;7.20;;;3.60;99.90;;;;;;5035239;28;20187;-83
2023/03/08 06:37:36;;;;;;;10.27;7.82;;;3.50;99.90;;;;;;5040019;28;20230;-84
2023/03/08 06:40:04;;;;;;;13.50;7.20;;;3.60;99.90;;;;;;5017055;28;20480;-84
2023/03/08 06:42:32;;;;;;;14.07;7.82;;;3.90;99.90;;;;;;5010323;28;20208;-83
2023/03/08 06:45:08;;;;;;;10.05;6.43;;;4.00;99.90;;;;;;5018726;28;20196;-84
2023/03/08 06:47:35;;;;;;;11.05;7.47;;;4.00;99.90;;;;;;5020438;28;20238;-84
2023/03/08 06:50:02;;;;;;;6.82;5.15;;;4.20;99.90;;;;;;5020102;28;20551;-83
2023/03/08 06:52:36;;;;;;;7.93;5.78;;;4.40;99.90;;;;;;5029357;28;20595;-84
2023/03/08 06:55:04;;;;;;;10.13;6.30;;;4.20;99.90;;;;;;5020107;28;20511;-83
2023/03/08 06:57:33;;;;;;;11.35;5.90;;;4.40;99.90;;;;;;5024758;28;20210;-84
2023/03/08 07:00:00;;;;;;;10.40;6.95;;;4.60;99.90;;;;;;5024171;28;20208;-83
2023/03/08 07:02:27;;;;;;;11.15;6.32;;;4.80;99.90;;;;;;5027300;28;20267;-87
2023/03/08 07:04:54;;;;;;;14.15;5.78;;;4.70;99.90;;;;;;5037180;28;20207;-88
2023/03/08 07:07:21;;;;;;;8.27;4.55;;;4.80;99.90;;;;;;5032475;28;20687;-88
2023/03/08 07:09:52;;;;;;;5.75;4.68;;;5.10;99.90;;;;;;5016898;28;20211;-86
2023/03/08 07:12:20;;;;;;;11.05;5.40;;;5.20;99.90;;;;;;5027618;28;20216;-84
2023/03/08 07:14:47;;;;;;;6.47;3.92;;;4.80;99.90;;;;;;5018660;28;20205;-88
2023/03/08 07:17:14;;;;;;;7.45;5.50;;;5.00;99.90;;;;;;5036288;28;20267;-87
2023/03/08 07:19:41;;;;;;;13.50;5.80;;;5.10;99.90;;;;;;5020272;28;20386;-86
2023/03/08 07:22:11;;;;;;;7.82;4.78;;;5.10;99.90;;;;;;5027036;28;20222;-87
2023/03/08 07:24:38;;;;;;;6.80;5.10;;;5.30;99.90;;;;;;5030118;28;20272;-86
2023/03/08 07:27:08;;;;;;;4.95;4.45;;;5.30;99.90;;;;;;5023349;28;20231;-87
2023/03/08 07:29:35;;;;;;;16.38;5.88;;;5.20;99.90;;;;;;5026953;28;20229;-87
2023/03/08 07:32:02;;;;;;;5.03;4.53;;;5.10;99.90;;;;;;5029996;28;20578;-86
2023/03/08 07:34:31;;;;;;;7.72;5.50;;;5.20;99.90;;;;;;5026888;28;20267;-87
2023/03/08 07:36:58;;;;;;;6.07;4.22;;;5.20;99.90;;;;;;5042598;28;20214;-86
2023/03/08 07:39:25;;;;;;;6.90;3.75;;;5.30;99.90;;;;;;5034500;28;20256;-87
2023/03/08 07:41:52;;;;;;;6.07;4.20;;;5.50;99.90;;;;;;5025056;28;20224;-88
2023/03/08 07:44:19;;;;;;;7.75;4.85;;;5.70;99.90;;;;;;5026634;28;20224;-88
2023/03/08 07:46:49;;;;;;;6.47;5.13;;;5.90;99.90;;;;;;5026466;28;20264;-86
2023/03/08 07:49:16;;;;;;;4.85;4.05;;;5.60;99.90;;;;;;5029720;28;20204;-86
2023/03/08 07:51:46;;;;;;;5.68;4.50;;;6.10;99.90;;;;;;5032295;28;20205;-87
2023/03/08 07:54:13;;;;;;;5.80;4.38;;;6.20;99.90;;;;;;5023077;28;20513;-86
2023/03/08 07:56:40;;;;;;;7.20;4.43;;;6.30;99.90;;;;;;5021455;28;20208;-86
2023/03/08 07:59:07;;;;;;;7.05;5.03;;;6.50;99.90;;;;;;5020610;28;20246;-85
2023/03/08 08:01:33;;;;;;;4.97;3.65;;;6.80;99.90;;;;;;5028445;28;20216;-84
2023/03/08 08:04:01;;;;;;;9.75;4.43;;;7.00;99.90;;;;;;5027516;28;20209;-85
2023/03/08 08:06:28;;;;;;;8.63;6.50;;;6.80;99.90;;;;;;5022820;28;20222;-87
2023/03/08 08:08:56;;;;;;;15.40;7.65;;;6.90;99.90;;;;;;5020272;28;20219;-86
2023/03/08 08:11:23;;;;;;;6.95;4.80;;;7.10;99.90;;;;;;5022537;28;20205;-85
2023/03/08 08:13:50;;;;;;;11.13;4.93;;;7.10;99.90;;;;;;5027092;28;20205;-86
2023/03/08 08:16:17;;;;;;;8.85;5.07;;;6.90;99.90;;;;;;5023132;28;20212;-87
2023/03/08 08:18:45;;;;;;;11.18;4.75;;;7.10;99.90;;;;;;5017455;28;20260;-85
2023/03/08 08:21:14;;;;;;;8.27;4.25;;;7.20;99.90;;;;;;5028091;28;20232;-85
2023/03/08 08:23:42;;;;;;;4.60;4.00;;;7.10;99.90;;;;;;5036175;28;20200;-85
2023/03/08 08:26:13;;;;;;;10.70;6.05;;;7.20;99.90;;;;;;5028757;28;20209;-85
2023/03/08 08:28:42;;;;;;;10.63;6.07;;;7.00;99.90;;;;;;5025949;28;20214;-86
2023/03/08 08:31:13;;;;;;;5.93;4.78;;;6.90;99.90;;;;;;5032517;28;20501;-87
2023/03/08 08:33:41;;;;;;;5.93;4.65;;;6.60;99.90;;;;;;5029316;28;20208;-85
2023/03/08 08:36:11;;;;;;;8.93;4.75;;;6.80;99.90;;;;;;5020689;28;20239;-84
2023/03/08 08:38:42;;;;;;;7.43;4.75;;;6.50;99.90;;;;;;5024577;28;20231;-84
2023/03/08 08:41:09;;;;;;;8.55;4.63;;;6.50;99.90;;;;;;5029908;28;20208;-84
2023/03/08 08:43:36;;;;;;;7.28;4.68;;;6.60;99.90;;;;;;5030509;28;20214;-86
2023/03/08 08:46:04;;;;;;;5.43;3.47;;;6.60;99.90;;;;;;5021403;28;20216;-86
2023/03/08 08:48:32;;;;;;;7.70;4.85;;;6.70;99.90;;;;;;5024181;28;20216;-84
2023/03/08 08:51:00;;;;;;;12.48;5.07;;;6.70;99.90;;;;;;5020468;28;20205;-84
2023/03/08 08:53:27;;;;;;;9.27;5.93;;;6.50;99.90;;;;;;5024868;28;20206;-83
2023/03/08 08:55:54;;;;;;;9.57;5.53;;;6.50;99.90;;;;;;5026082;28;20228;-84
2023/03/08 08:58:22;;;;;;;9.02;5.10;;;6.30;99.90;;;;;;5033180;28;20292;-86
2023/03/08 09:00:49;;;;;;;9.70;5.45;;;6.30;99.90;;;;;;5031025;28;20215;-84
2023/03/08 09:03:17;;;;;;;5.95;5.35;;;6.20;99.90;;;;;;5021835;28;20235;-82
2023/03/08 09:05:44;;;;;;;6.53;4.90;;;6.70;99.90;;;;;;5029846;28;20216;-84
2023/03/08 09:08:12;;;;;;;10.07;5.43;;;7.20;99.90;;;;;;5036403;28;20216;-83
2023/03/08 09:10:40;;;;;;;13.05;7.63;;;7.50;99.90;;;;;;5023046;28;20543;-83
2023/03/08 09:13:07;;;;;;;9.25;5.13;;;7.70;99.90;;;;;;5023480;28;20193;-84
2023/03/08 09:15:36;;;;;;;14.20;7.10;;;8.10;99.90;;;;;;5032569;28;20224;-84
2023/03/08 09:18:03;;;;;;;7.78;3.78;;;8.60;99.90;;;;;;5033750;28;20207;-85
2023/03/08 09:20:31;;;;;;;3.75;3.33;;;8.60;99.90;;;;;;5028630;28;20487;-83
2023/03/08 09:22:58;;;;;;;8.93;4.55;;;9.00;99.90;;;;;;5029396;28;20266;-85
2023/03/08 09:25:25;;;;;;;5.13;3.83;;;9.00;99.90;;;;;;5026990;28;20204;-84
2023/03/08 09:27:52;;;;;;;6.22;4.28;;;9.00;99.90;;;;;;5031443;28;20609;-83
2023/03/08 09:30:19;;;;;;;4.80;3.58;;;8.90;99.90;;;;;;5022421;28;20211;-83
2023/03/08 09:32:46;;;;;;;5.15;4.32;;;8.70;99.90;;;;;;5028454;28;20217;-84
2023/03/08 09:35:14;;;;;;;4.95;3.80;;;9.20;99.90;;;;;;5025547;28;20217;-84
2023/03/08 09:37:41;;;;;;;7.93;5.00;;;9.20;99.90;;;;;;5029665;28;20206;-84
2023/03/08 09:40:18;;;;;;;4.03;3.22;;;9.50;99.90;;;;;;5028758;28;20564;-84
2023/03/08 09:42:45;;;;;;;3.58;3.25;;;10.10;99.90;;;;;;5025971;28;20215;-82
2023/03/08 09:45:25;;;;;;;5.68;4.65;;;10.10;99.90;;;;;;5026402;28;20483;-83
2023/03/08 09:48:07;;;;;;;5.65;4.15;;;10.00;99.90;;;;;;5039344;28;20435;-83
2023/03/08 09:50:57;;;;;;;6.20;3.42;;;10.10;99.90;;;;;;5021330;28;20493;-83
2023/03/08 09:53:54;;;;;;;7.47;4.85;;;10.20;99.90;;;;;;5018294;28;20200;-83
2023/03/08 09:56:44;;;;;;;6.32;3.65;;;10.50;99.90;;;;;;5027470;28;20205;-83
2023/03/08 09:59:29;;;;;;;6.78;4.22;;;10.90;99.90;;;;;;5020985;28;20417;-83
2023/03/08 10:02:10;;;;;;;7.53;4.47;;;10.50;99.90;;;;;;5025581;28;20201;-83
2023/03/08 10:05:08;;;;;;;8.07;4.75;;;10.40;99.90;;;;;;5023689;28;20201;-82
2023/03/08 10:07:54;;;;;;;5.50;3.88;;;10.20;99.90;;;;;;5022134;28;20510;-81
2023/03/08 10:10:39;;;;;;;4.13;3.70;;;9.90;99.90;;;;;;5022426;28;20193;-81
2023/03/08 10:13:18;;;;;;;5.22;4.28;;;9.80;99.90;;;;;;5027077;28;20243;-83
2023/03/08 10:15:50;;;;;;;5.57;5.13;;;9.60;99.90;;;;;;5024078;28;20208;-82
2023/03/08 10:18:32;;;;;;;4.50;4.05;;;9.70;99.90;;;;;;5032442;28;20530;-82
2023/03/08 10:21:00;;;;;;;8.07;4.63;;;10.10;99.90;;;;;;5022661;28;20384;-82
2023/03/08 10:23:31;;;;;;;8.00;6.13;;;9.90;99.90;;;;;;5033729;28;20219;-83
2023/03/08 10:25:59;;;;;;;11.73;6.65;;;9.30;99.90;;;;;;5031202;28;20262;-83
2023/03/08 10:28:27;;;;;;;8.43;5.35;;;9.20;99.90;;;;;;5030853;28;20275;-82
2023/03/08 10:30:58;;;;;;;8.25;4.97;;;9.40;99.90;;;;;;5027856;28;20226;-82
2023/03/08 10:33:33;;;;;;;7.10;5.47;;;9.00;99.90;;;;;;5025927;28;20274;-83
2023/03/08 10:36:15;;;;;;;7.22;4.18;;;9.20;99.90;;;;;;5017742;28;20268;-82
2023/03/08 10:38:54;;;;;;;10.80;5.38;;;8.90;99.90;;;;;;5025984;28;20423;-82
2023/03/08 10:41:22;;;;;;;7.05;5.15;;;8.70;99.90;;;;;;5023055;28;20544;-81
2023/03/08 10:43:52;;;;;;;10.35;8.85;;;8.40;99.90;;;;;;5027905;28;20485;-83
2023/03/08 10:46:24;;;;;;;9.55;7.50;;;8.50;99.90;;;;;;5029906;28;20461;-82
2023/03/08 10:48:52;;;;;;;14.30;6.82;;;8.60;99.90;;;;;;5030713;28;20247;-83
2023/03/08 10:51:25;;;;;;;8.18;6.30;;;8.70;99.90;;;;;;5022580;28;20448;-82
2023/03/08 10:53:59;;;;;;;8.77;6.53;;;8.40;99.90;;;;;;5029337;28;20236;-82
2023/03/08 10:56:38;;;;;;;9.32;6.18;;;8.40;99.90;;;;;;5020451;28;20196;-83
2023/03/08 10:59:15;;;;;;;12.25;7.68;;;8.40;99.90;;;;;;5043163;28;20238;-81
2023/03/08 11:01:55;;;;;;;13.63;7.63;;;8.60;99.90;;;;;;5036421;28;20299;-84
2023/03/08 11:04:24;;;;;;;10.10;6.05;;;8.40;99.90;;;;;;5026435;28;20195;-83
2023/03/08 11:06:52;;;;;;;8.95;5.93;;;8.30;99.90;;;;;;5023072;28;20231;-82
2023/03/08 11:09:26;;;;;;;11.90;6.20;;;8.30;99.90;;;;;;5028553;28;20246;-83
2023/03/08 11:11:55;;;;;;;9.75;6.60;;;8.10;99.90;;;;;;5028967;28;20573;-83
2023/03/08 11:14:23;;;;;;;12.48;7.63;;;8.10;99.90;;;;;;5030889;28;20242;-83
2023/03/08 11:17:03;;;;;;;12.98;7.50;;;8.30;99.90;;;;;;5034524;28;20209;-83
2023/03/08 11:19:59;;;;;;;12.20;7.38;;;8.00;99.90;;;;;;5024724;28;20230;-82
2023/03/08 11:22:56;;;;;;;14.60;8.27;;;7.70;99.90;;;;;;5021081;28;20205;-83
2023/03/08 11:25:35;;;;;;;13.13;7.72;;;7.80;99.90;;;;;;5007358;28;20222;-82
2023/03/08 11:28:26;;;;;;;13.15;7.53;;;7.60;99.90;;;;;;5023459;28;20255;-83
2023/03/08 11:31:17;;;;;;;26.42;11.55;;;7.00;99.90;;;;;;5023654;28;20271;-83
2023/03/08 11:34:22;;;;;;;18.42;10.45;;;6.50;99.90;;;;;;5025145;28;20461;-84
2023/03/08 11:37:04;;;;;;;10.45;7.05;;;6.50;99.90;;;;;;5003621;28;20197;-84
2023/03/08 11:40:01;;;;;;;9.35;7.13;;;6.30;99.90;;;;;;5024336;28;20262;-83
2023/03/08 11:42:53;;;;;;;9.43;6.55;;;6.40;99.90;;;;;;5011013;28;20509;-84
2023/03/08 11:45:57;;;;;;;15.38;9.50;;;6.30;99.90;;;;;;5023681;28;20251;-84
2023/03/08 11:48:30;;;;;;;12.82;8.10;;;6.30;99.90;;;;;;5019012;28;20205;-85
2023/03/08 11:51:09;;;;;;;23.92;11.60;;;6.00;99.90;;;;;;5029276;28;20245;-83
2023/03/08 11:53:49;;;;;;;16.60;8.57;;;6.10;99.90;;;;;;5019647;28;20404;-84
2023/03/08 11:56:30;;;;;;;13.23;9.35;;;6.70;99.90;;;;;;5022163;28;20216;-84
2023/03/08 11:59:05;;;;;;;13.45;7.57;;;7.10;99.90;;;;;;5029609;28;20505;-84
2023/03/08 12:01:47;;;;;;;11.35;7.55;;;7.40;99.90;;;;;;5027772;28;20431;-83
2023/03/08 12:04:19;;;;;;;26.38;10.38;;;8.10;99.90;;;;;;5029502;28;20210;-82
2023/03/08 12:06:46;;;;;;;12.40;8.00;;;8.20;99.90;;;;;;5025089;28;20520;-83
2023/03/08 12:09:14;;;;;;;14.02;7.55;;;8.10;99.90;;;;;;5035583;28;20283;-83
2023/03/08 12:11:50;;;;;;;6.80;5.53;;;8.10;99.90;;;;;;5032279;28;20207;-83
2023/03/08 12:14:29;;;;;;;12.18;6.28;;;8.10;99.90;;;;;;5030846;28;20311;-83
2023/03/08 12:17:11;;;;;;;17.13;7.28;;;7.50;99.90;;;;;;5029885;28;20225;-81
2023/03/08 12:19:48;;;;;;;7.38;4.40;;;7.40;99.90;;;;;;5018927;28;20228;-83
2023/03/08 12:22:37;;;;;;;10.95;5.95;;;7.30;99.90;;;;;;5017992;28;20208;-83
2023/03/08 12:25:08;;;;;;;6.47;4.90;;;7.10;99.90;;;;;;5025965;28;20217;-82
2023/03/08 12:27:58;;;;;;;13.93;8.00;;;7.20;99.90;;;;;;5027224;28;20301;-81
2023/03/08 12:30:42;;;;;;;20.83;10.75;;;7.30;99.90;;;;;;5019299;28;20211;-81
2023/03/08 12:33:12;;;;;;;21.77;10.70;;;7.40;99.90;;;;;;5023595;28;20212;-82
2023/03/08 12:35:56;;;;;;;10.30;7.15;;;7.10;99.90;;;;;;5023960;28;20205;-82
2023/03/08 12:38:34;;;;;;;11.77;8.55;;;7.30;99.90;;;;;;5011362;28;20452;-81
2023/03/08 12:41:02;;;;;;;16.05;8.23;;;7.50;99.90;;;;;;5020321;28;20283;-81
2023/03/08 12:43:33;;;;;;;9.95;7.10;;;7.40;99.90;;;;;;5028213;28;20732;-83
2023/03/08 12:46:04;;;;;;;14.60;8.32;;;7.30;99.90;;;;;;5029811;28;20397;-83
2023/03/08 12:48:43;;;;;;;8.85;6.20;;;7.20;99.90;;;;;;5018983;28;20444;-83
2023/03/08 12:51:11;;;;;;;8.57;5.68;;;7.30;99.90;;;;;;5019688;28;20268;-83
2023/03/08 12:53:43;;;;;;;8.18;5.95;;;7.20;99.90;;;;;;5026639;28;20741;-84
2023/03/08 12:56:10;;;;;;;10.98;7.07;;;7.30;99.90;;;;;;5020952;28;20220;-84
2023/03/08 12:59:02;;;;;;;7.47;5.85;;;7.20;99.90;;;;;;5037704;28;20204;-83
2023/03/08 13:01:39;;;;;;;8.82;6.97;;;6.90;99.90;;;;;;5023396;28;20200;-83
2023/03/08 13:04:37;;;;;;;10.82;6.35;;;6.70;99.90;;;;;;5031993;28;20259;-82
2023/03/08 13:07:10;;;;;;;13.65;9.07;;;6.70;99.90;;;;;;5028678;28;20208;-82
2023/03/08 13:09:40;;;;;;;12.68;7.60;;;7.10;99.90;;;;;;5043038;28;20209;-84
2023/03/08 13:12:07;;;;;;;18.88;10.00;;;7.20;99.90;;;;;;5035106;28;20219;-83
2023/03/08 13:14:45;;;;;;;8.27;4.97;;;7.60;99.90;;;;;;5018973;28;20201;-82